Accueil
METAR-TAF:

METAR-TAF

Aéroports :

Conakry, Guinée

Aéroport international de Conakry

latitude: 09-34N, longitude: 013-37W, altitude: 26 m

Observation

Le bulletin a été fait il y a 2 heures et 37 minutes, à 01:00 UTC
Vent calme
Température 27°C
Humidité 84%
Pression 1014 hPa
Visibilité: 3000 m
brume

METAR: GUCY 260100Z 00000KT 3000 BR NSC 27/24 Q1014 NOSIG

Heure: 03:37 (03:37 UTC)

Prévision

Le bulletin a été fait il y a 4 heures et 37 minutes, à 23:00 UTC
Prévision valable du 26 à 00 UTC au 27 à 06 UTC
Vent 6 kt de ouest/sud-ouest
Visibilité 10 km ou plus
Nuages épars à une hauteur de 1600 ft
Nuages fragmentés à une hauteur de 12000 ft
Temporairement
du 26 à 07 UTC au 26 à 13 UTC
Vent 2 kt de direction variable
Nuages fragmentés à une hauteur de 1500 ft
Nuages fragmentés à une hauteur de 11000 ft

TAF: GUCY 252300Z 2600/2706 25006KT 9999 SCT016 BKN120 TEMPO 2607/2613 VRB02KT BKN015 BKN110

Observations et prévisions météorologiques de plus de 4000 aéroports (messages METAR et TAF).

Les stations disponibles sont représentées par des disques jaunes et rouges sur la carte.

Passer la souris dessus pour voir le nom de la station.

Cliquer dessus pour voir les observations et prévisions météorologiques.

Pour changer de carte: cliquez sur les boutons verts avec une croix noire pour zoomer, sur le bouton vert avec un tiret pour effectuer un zoom arrière, ou sur les flèches vertes pour les cartes adjacentes.


METAR-TAF: